Time,TemperatureF,DewpointF,PressureIn,WindDirection,WindDirectionDegrees,WindSpeedMPH,WindSpeedGustMPH,Humidity,HourlyPrecipIn,Conditions,Clouds,dailyrainin,SoftwareType,DateUTC
2013-03-10 07:52:00,44.0,-99.9,29.61,WNW,296,5.0,-999.0,-999,-99.99,,,-99.99,,2013-03-10 12:52:00,
2013-03-10 08:01:00,44.0,39.0,29.65,West,270,5.0,-999.0,83,-99.99,,,-99.99,,2013-03-10 13:01:00,
2013-03-10 08:11:00,44.0,39.0,29.65,West,270,5.0,-999.0,83,-99.99,,,-99.99,,2013-03-10 13:11:00,
2013-03-10 08:52:00,43.0,38.0,29.60,NW,315,3.0,-999.0,84,-99.99,,,-99.99,,2013-03-10 13:52:00,
2013-03-10 09:01:00,43.0,38.0,29.63,WNW,289,4.0,-999.0,84,-99.99,,,-99.99,,2013-03-10 14:01:00,
2013-03-10 09:11:00,43.0,38.0,29.63,WNW,289,4.0,-999.0,84,-99.99,,,-99.99,,2013-03-10 14:11:00,
2013-03-10 09:21:00,43.0,38.0,29.64,WNW,295,4.0,-999.0,81,-99.99,,,-99.99,,2013-03-10 14:21:00,
2013-03-10 09:32:00,43.0,38.0,29.65,West,280,3.0,-999.0,81,-99.99,,,-99.99,,2013-03-10 14:32:00,
2013-03-10 09:41:00,43.0,38.0,29.65,West,280,3.0,-999.0,81,-99.99,,,-99.99,,2013-03-10 14:41:00,
2013-03-10 09:52:00,43.0,38.0,29.66,WSW,246,3.0,-999.0,81,-99.99,,,-99.99,,2013-03-10 14:52:00,
2013-03-10 10:01:00,43.0,38.0,29.65,West,268,2.0,-999.0,81,-99.99,,,-99.99,,2013-03-10 15:01:00,
2013-03-10 10:11:00,43.0,38.0,29.65,West,268,2.0,-999.0,81,-99.99,,,-99.99,,2013-03-10 15:11:00,
2013-03-10 10:21:00,43.0,38.0,29.67,North,-999,-999.0,-999.0,81,-99.99,,,-99.99,,2013-03-10 15:21:00,
2013-03-10 10:32:00,43.0,38.0,29.67,North,-999,-999.0,-999.0,81,-99.99,,,-99.99,,2013-03-10 15:32:00,
2013-03-10 10:42:00,43.0,38.0,29.67,North,-999,-999.0,-999.0,81,-99.99,,,-99.99,,2013-03-10 15:42:00,
2013-03-10 10:52:00,43.0,38.0,29.67,West,271,5.0,-999.0,81,-99.99,,,-99.99,,2013-03-10 15:52:00,
2013-03-10 11:01:00,42.0,37.0,29.67,West,263,4.0,-999.0,82,-99.99,,,-99.99,,2013-03-10 16:01:00,
2013-03-10 11:12:00,42.0,37.0,29.67,West,263,4.0,-999.0,82,-99.99,,,-99.99,,2013-03-10 16:12:00,
2013-03-10 11:21:00,41.0,36.0,29.68,West,278,11.0,-999.0,81,-99.99,,,-99.99,,2013-03-10 16:21:00,
2013-03-10 11:31:00,41.0,36.0,29.69,North,-999,-999.0,-999.0,81,-99.99,,,-99.99,,2013-03-10 16:31:00,
2013-03-10 11:41:00,41.0,36.0,29.69,North,-999,-999.0,-999.0,81,-99.99,,,-99.99,,2013-03-10 16:41:00,
2013-03-10 11:52:00,41.0,36.0,29.69,West,265,9.0,-999.0,82,-99.99,,,-99.99,,2013-03-10 16:52:00,
2013-03-10 12:01:00,40.0,35.0,29.70,WSW,256,6.0,-999.0,82,-99.99,,,-99.99,,2013-03-10 17:01:00,
2013-03-10 12:11:00,40.0,35.0,29.70,WSW,256,6.0,-999.0,82,-99.99,,,-99.99,,2013-03-10 17:11:00,
2013-03-10 12:21:00,40.0,35.0,29.70,West,280,7.0,-999.0,82,-99.99,,,-99.99,,2013-03-10 17:21:00,
2013-03-10 12:31:00,40.0,35.0,29.71,North,-999,-999.0,-999.0,82,-99.99,,,-99.99,,2013-03-10 17:31:00,
2013-03-10 12:41:00,40.0,35.0,29.71,North,-999,-999.0,-999.0,82,-99.99,,,-99.99,,2013-03-10 17:41:00,
2013-03-10 12:51:00,40.0,35.0,29.71,WNW,289,5.0,-999.0,82,-99.99,,,-99.99,,2013-03-10 17:51:00,
2013-03-10 13:01:00,40.0,35.0,29.72,West,275,5.0,-999.0,82,-99.99,,,-99.99,,2013-03-10 18:01:00,
2013-03-10 13:11:00,40.0,35.0,29.72,North,-999,-999.0,-999.0,82,-99.99,,,-99.99,,2013-03-10 18:11:00,
2013-03-10 13:21:00,40.0,35.0,29.72,North,-999,-999.0,-999.0,82,-99.99,,,-99.99,,2013-03-10 18:21:00,
2013-03-10 13:31:00,40.0,36.0,29.74,WNW,291,6.0,-999.0,85,-99.99,,,-99.99,,2013-03-10 18:31:00,
2013-03-10 13:41:00,40.0,36.0,29.74,WNW,291,6.0,-999.0,85,-99.99,,,-99.99,,2013-03-10 18:41:00,
2013-03-10 13:52:00,40.0,35.0,29.74,North,-999,-999.0,-999.0,81,-99.99,,,-99.99,,2013-03-10 18:52:00,
2013-03-10 14:01:00,39.0,34.0,29.75,WNW,292,7.0,-999.0,81,-99.99,,,-99.99,,2013-03-10 19:01:00,
2013-03-10 14:11:00,39.0,34.0,29.75,WNW,292,7.0,-999.0,81,-99.99,,,-99.99,,2013-03-10 19:11:00,
2013-03-10 14:21:00,39.0,34.0,29.76,WSW,256,6.0,-999.0,82,-99.99,,,-99.99,,2013-03-10 19:21:00,
2013-03-10 14:31:00,39.0,34.0,29.77,WNW,284,5.0,-999.0,81,-99.99,,,-99.99,,2013-03-10 19:31:00,
2013-03-10 14:42:00,39.0,34.0,29.77,WNW,284,5.0,-999.0,81,-99.99,,,-99.99,,2013-03-10 19:42:00,
2013-03-10 14:53:00,38.0,32.0,29.77,WNW,289,9.0,-999.0,80,-99.99,,,-99.99,,2013-03-10 19:53:00,
2013-03-10 15:02:00,39.0,33.0,29.77,West,278,8.0,-999.0,78,-99.99,,,-99.99,,2013-03-10 20:02:00,
2013-03-10 15:12:00,39.0,33.0,29.77,West,278,8.0,-999.0,78,-99.99,,,-99.99,,2013-03-10 20:12:00,
2013-03-10 15:22:00,38.0,33.0,29.77,WNW,285,9.0,-999.0,82,-99.99,,,-99.99,,2013-03-10 20:22:00,
2013-03-10 15:32:00,39.0,33.0,29.78,NW,308,8.0,-999.0,79,-99.99,,,-99.99,,2013-03-10 20:32:00,
2013-03-10 15:42:00,39.0,33.0,29.78,NW,308,8.0,-999.0,79,-99.99,,,-99.99,,2013-03-10 20:42:00,
2013-03-10 15:53:00,37.0,33.0,29.79,West,281,8.0,-999.0,84,-99.99,,,-99.99,,2013-03-10 20:53:00,
2013-03-10 16:02:00,36.0,32.0,29.80,WNW,284,8.0,-999.0,86,-99.99,,,-99.99,,2013-03-10 21:02:00,
2013-03-10 16:12:00,36.0,32.0,29.80,WNW,284,8.0,-999.0,86,-99.99,,,-99.99,,2013-03-10 21:12:00,
2013-03-10 16:22:00,36.0,30.0,29.81,WNW,292,9.0,-999.0,79,-99.99,,,-99.99,,2013-03-10 21:22:00,
2013-03-10 16:32:00,37.0,31.0,29.82,West,274,8.0,-999.0,78,-99.99,,,-99.99,,2013-03-10 21:32:00,
2013-03-10 16:42:00,37.0,31.0,29.82,West,274,8.0,-999.0,78,-99.99,,,-99.99,,2013-03-10 21:42:00,
2013-03-10 16:53:00,36.0,29.0,29.82,WNW,282,8.0,-999.0,75,-99.99,,,-99.99,,2013-03-10 21:53:00,
2013-03-10 17:02:00,36.0,28.0,29.83,West,270,7.0,-999.0,73,-99.99,,,-99.99,,2013-03-10 22:02:00,
2013-03-10 17:12:00,36.0,28.0,29.83,West,270,7.0,-999.0,73,-99.99,,,-99.99,,2013-03-10 22:12:00,
2013-03-10 17:22:00,36.0,28.0,29.83,NW,308,6.0,-999.0,72,-99.99,,,-99.99,,2013-03-10 22:22:00,
2013-03-10 17:32:00,36.0,28.0,29.84,NNW,342,6.0,-999.0,71,-99.99,,,-99.99,,2013-03-10 22:32:00,
2013-03-10 17:42:00,36.0,28.0,29.84,NNW,342,6.0,-999.0,71,-99.99,,,-99.99,,2013-03-10 22:42:00,
2013-03-10 17:53:00,36.0,28.0,29.84,WNW,287,6.0,-999.0,72,-99.99,,,-99.99,,2013-03-10 22:53:00,
2013-03-10 18:02:00,36.0,27.0,29.85,WNW,289,8.0,-999.0,70,-99.99,,,-99.99,,2013-03-10 23:02:00,
2013-03-10 18:12:00,35.0,26.0,29.85,WNW,289,9.0,-999.0,69,-99.99,,,-99.99,,2013-03-10 23:12:00,
2013-03-10 18:22:00,35.0,26.0,29.85,WNW,289,9.0,-999.0,69,-99.99,,,-99.99,,2013-03-10 23:22:00,
2013-03-10 18:32:00,35.0,26.0,29.85,NW,313,5.0,-999.0,70,-99.99,,,-99.99,,2013-03-10 23:32:00,
2013-03-10 18:42:00,35.0,26.0,29.85,NW,313,5.0,-999.0,70,-99.99,,,-99.99,,2013-03-10 23:42:00,
2013-03-10 18:52:00,35.0,26.0,29.86,West,278,5.0,-999.0,68,-99.99,,,-99.99,,2013-03-10 23:52:00,
2013-03-10 19:02:00,35.0,25.0,29.87,West,278,8.0,-999.0,67,-99.99,,,-99.99,,2013-03-11 00:02:00,
2013-03-10 19:12:00,35.0,25.0,29.87,West,278,8.0,-999.0,67,-99.99,,,-99.99,,2013-03-11 00:12:00,
2013-03-10 19:22:00,34.0,25.0,29.88,NW,305,6.0,-999.0,68,-99.99,,,-99.99,,2013-03-11 00:22:00,
2013-03-10 19:33:00,34.0,24.0,29.88,WNW,289,6.0,-999.0,67,-99.99,,,-99.99,,2013-03-11 00:33:00,
2013-03-10 19:42:00,34.0,24.0,29.88,WNW,289,6.0,-999.0,67,-99.99,,,-99.99,,2013-03-11 00:42:00,
2013-03-10 19:53:00,34.0,25.0,29.88,NW,304,5.0,-999.0,68,-99.99,,,-99.99,,2013-03-11 00:53:00,
2013-03-10 20:02:00,34.0,25.0,29.89,West,272,4.0,-999.0,68,-99.99,,,-99.99,,2013-03-11 01:02:00,
2013-03-10 20:12:00,34.0,25.0,29.89,West,272,4.0,-999.0,68,-99.99,,,-99.99,,2013-03-11 01:12:00,
2013-03-10 20:22:00,34.0,25.0,29.89,West,281,5.0,-999.0,68,-99.99,,,-99.99,,2013-03-11 01:22:00,
2013-03-10 20:32:00,34.0,25.0,29.89,West,281,5.0,-999.0,68,-99.99,,,-99.99,,2013-03-11 01:32:00,
2013-03-10 20:42:00,34.0,25.0,29.89,West,281,5.0,-999.0,68,-99.99,,,-99.99,,2013-03-11 01:42:00,
2013-03-10 20:52:00,34.0,25.0,29.89,West,281,5.0,-999.0,68,-99.99,,,-99.99,,2013-03-11 01:52:00,
2013-03-10 22:22:00,32.0,22.0,29.93,NW,309,7.0,-999.0,67,-99.99,,,-99.99,,2013-03-11 03:22:00,
2013-03-10 22:32:00,32.0,22.0,29.93,NW,309,7.0,-999.0,67,-99.99,,,-99.99,,2013-03-11 03:32:00,
2013-03-10 22:42:00,32.0,22.0,29.93,NW,309,7.0,-999.0,67,-99.99,,,-99.99,,2013-03-11 03:42:00,
2013-03-10 22:52:00,32.0,22.0,29.93,NW,309,7.0,-999.0,67,-99.99,,,-99.99,,2013-03-11 03:52:00,